Flight Track Log - Related Links

Times and Time Zones

All times are in EDT time to prevent confusion due to time zone crossing. See the EGF3681 flight status page for this flight to view local times or setup timezone preferences in your user account.

Time Position Orientation Groundspeed Altitude Reporting Facility
EDT Latitude Longitude Course Direction KTS MPH feet Rate Location/Type
Mon 03:25:12 PM 35.4019 -97.6097 58° Northeast 138 159 2,100  Level Fort Worth Center
Mon 03:26:07 PM 35.4500 -97.5994 10° North 203 234 3,700 2,095 Climbing Fort Worth Center
Mon 03:27:00 PM 35.5456 -97.2487 60° Northeast  Level FlightAware Approximate
Mon 03:28:00 PM 35.5970 -97.1292 66° East  Level FlightAware Approximate
Mon 03:28:01 PM 35.5325 -97.4814 49° Northeast 279 321 8,000  Level Kansas City Center
Mon 03:29:00 PM 35.6419 -97.0056 66° East  Level FlightAware Approximate
Mon 03:29:02 PM 35.5578 -97.3792 73° East 303 349 10,800  Level Kansas City Center
Mon 03:30:00 PM 35.6973 -96.8887 58° Northeast  Level FlightAware Approximate
Mon 03:30:06 PM 35.5886 -97.2667 71° East 338 389 12,800  Level Kansas City Center
Mon 03:31:06 PM 35.6367 -97.1533 62° Northeast 365 420 14,900 2,033 Climbing Kansas City Center
Mon 03:32:07 PM 35.6869 -97.0322 63° Northeast 388 447 16,900 1,854 Climbing Kansas City Center
Mon 03:33:09 PM 35.7389 -96.9058 63° Northeast 407 468 18,700 1,748 Climbing Kansas City Center
Mon 03:34:14 PM 35.8039 -96.7483 63° Northeast 426 490 20,600 1,632 Climbing Kansas City Center
Mon 03:35:14 PM 35.8608 -96.6103 63° Northeast 445 512 22,100 1,488 Climbing Kansas City Center
Mon 03:36:15 PM 35.9192 -96.4692 63° Northeast 459 528 23,600 1,536 Climbing Kansas City Center
Mon 03:37:19 PM 36.0064 -96.3358 51° Northeast 460 529 25,300 1,536 Climbing Kansas City Center
Mon 03:38:20 PM 36.0967 -96.2219 46° Northeast 462 532 26,800 1,475 Climbing Kansas City Center
Mon 03:39:21 PM 36.1858 -96.1086 46° Northeast 460 529 28,300 1,200 Climbing Kansas City Center
Mon 03:40:25 PM 36.2758 -95.9922 46° Northeast 463 533 29,300 960 Climbing Kansas City Center
Mon 03:41:26 PM 36.3683 -95.8736 46° Northeast 471 542 30,300 1,033 Climbing Kansas City Center
Mon 03:42:27 PM 36.4683 -95.7439 46° Northeast 478 550 31,400 912 Climbing Kansas City Center
Mon 03:43:31 PM 36.5625 -95.6231 46° Northeast 485 558 32,200 774 Climbing Kansas City Center
Mon 03:44:31 PM 36.6544 -95.5028 46° Northeast 490 564 33,000 787 Climbing Kansas City Center
Mon 03:45:33 PM 36.7497 -95.3775 46° Northeast 491 565 33,800 787 Climbing Kansas City Center
Mon 03:46:33 PM 36.8450 -95.2528 46° Northeast 492 566 34,600 871 Climbing Kansas City Center
Mon 03:47:37 PM 36.9583 -95.1031 47° Northeast 492 566 35,600 864 Climbing Kansas City Center
Mon 03:48:38 PM 37.0519 -94.9794 46° Northeast 488 562 36,400 689 Climbing Kansas City Center
Mon 03:49:39 PM 37.1450 -94.8561 47° Northeast 487 560 37,000 295 Climbing Kansas City Center
Mon 03:50:40 PM 37.2408 -94.7325 46° Northeast 491 565 37,000  Level Kansas City Center
Mon 03:51:44 PM 37.3358 -94.6036 47° Northeast 498 573 37,000  Level Kansas City Center
Mon 03:52:44 PM 37.4317 -94.4742 47° Northeast 503 579 37,000  Level Kansas City Center
Mon 03:53:48 PM 37.5258 -94.3506 46° Northeast 493 567 37,000  Level Kansas City Center
Mon 03:54:49 PM 37.6192 -94.2236 47° Northeast 492 566 37,000  Level Kansas City Center
Mon 03:55:52 PM 37.7278 -94.0758 47° Northeast 490 564 37,000  Level Kansas City Center
Mon 03:56:52 PM 37.8203 -93.9486 47° Northeast 490 564 37,000  Level Kansas City Center
Mon 03:57:56 PM 37.9139 -93.8208 47° Northeast 490 564 37,000  Level Kansas City Center
Mon 03:58:56 PM 38.0064 -93.6936 47° Northeast 489 563 37,000  Level Kansas City Center
Mon 04:00:00 PM 38.1003 -93.5650 47° Northeast 491 565 37,000  Level Kansas City Center
Mon 04:01:01 PM 38.1936 -93.4347 48° Northeast 494 568 37,000  Level Kansas City Center
Mon 04:02:01 PM 38.3042 -93.2794 48° Northeast 491 565 37,000  Level Kansas City Center
Mon 04:03:05 PM 38.3986 -93.1483 47° Northeast 493 567 37,000  Level Kansas City Center
Mon 04:04:07 PM 38.4936 -93.0147 48° Northeast 499 574 37,000  Level Kansas City Center
Mon 04:05:07 PM 38.5867 -92.8833 48° Northeast 496 571 37,000  Level Kansas City Center
Mon 04:06:11 PM 38.6792 -92.7511 48° Northeast 494 568 37,000  Level Kansas City Center
Mon 04:07:12 PM 38.7711 -92.6214 48° Northeast 492 566 37,000  Level Kansas City Center
Mon 04:08:15 PM 38.8653 -92.4878 48° Northeast 494 568 37,000  Level Kansas City Center
Mon 04:09:16 PM 38.9586 -92.3525 48° Northeast 500 575 37,000  Level Kansas City Center
Mon 04:10:19 PM 39.0525 -92.2178 48° Northeast 501 577 37,000  Level Kansas City Center
Mon 04:11:20 PM 39.1608 -92.0539 50° Northeast 499 574 37,000  Level Kansas City Center
Mon 04:12:21 PM 39.2439 -91.9064 54° Northeast 500 575 37,000  Level Kansas City Center
Mon 04:13:25 PM 39.3314 -91.7928 45° Northeast 492 566 37,000  Level Kansas City Center
Mon 04:14:26 PM 39.4439 -91.7608 12° North 431 496 37,000  Level Kansas City Center
Mon 04:15:29 PM 39.5756 -91.7636 359° North 406 467 37,000  Level Kansas City Center
Mon 04:16:30 PM 39.6808 -91.6936 27° Northeast 430 495 37,000 -144 Level Kansas City Center
Mon 04:17:34 PM 39.7608 -91.5619 52° Northeast 469 540 36,700 -1,104 Descending Kansas City Center
Mon 04:18:35 PM 39.8286 -91.4108 60° Northeast 485 558 34,700 -1,785 Descending Kansas City Center
Mon 04:19:35 PM 39.8953 -91.2597 60° Northeast 487 560 33,100 -823 Descending Kansas City Center
Mon 04:20:39 PM 39.9744 -91.0750 61° Northeast 491 565 33,000 -48 Descending Kansas City Center
Mon 04:21:39 PM 40.0358 -90.9358 60° Northeast 498 573 33,000  Level Kansas City Center
Mon 04:22:43 PM 40.1189 -90.7428 61° Northeast 505 581 33,000  Level Kansas City Center
Mon 04:22:58 PM 40.1256 -90.7261 62° Northeast 506 582 33,000  Level Chicago Center
Mon 04:24:00 PM 40.2161 -90.5686 53° Northeast 493 567 33,000  Level Chicago Center
Mon 04:25:02 PM 40.3183 -90.4631 38° Northeast 469 540 33,000  Level Chicago Center
Mon 04:26:05 PM 40.4197 -90.3586 38° Northeast 463 533 33,000  Level Chicago Center
Mon 04:27:07 PM 40.5319 -90.2436 38° Northeast 478 550 33,000 -387 Level Chicago Center
Mon 04:28:09 PM 40.6628 -90.1089 38° Northeast 496 571 32,200 -1,694 Descending Chicago Center
Mon 04:29:11 PM 40.7708 -89.9975 38° Northeast 497 572 29,500 -2,661 Descending Chicago Center
Mon 04:30:13 PM 40.8700 -89.8944 38° Northeast 475 547 26,700 -2,468 Descending Chicago Center
Mon 04:31:15 PM 40.9653 -89.7922 39° Northeast 447 514 24,400 -1,306 Descending Chicago Center
Mon 04:32:17 PM 41.0633 -89.6908 38° Northeast 433 498 24,000 -435 Descending Chicago Center
Mon 04:33:19 PM 41.1567 -89.5892 39° Northeast 432 497 23,500 -726 Descending Chicago Center
Mon 04:34:21 PM 41.2239 -89.4336 60° Northeast 475 547 22,500 -1,403 Descending Chicago Center
Mon 04:35:23 PM 41.2850 -89.2811 62° Northeast 470 541 20,600 -2,226 Descending Chicago Center
Mon 04:36:25 PM 41.3272 -89.1108 72° East 444 511 17,900 -1,742 Descending Chicago Center
Mon 04:37:27 PM 41.3456 -88.9589 81° East 421 484 17,000 -1,500 Descending Chicago Center
Mon 04:38:29 PM 41.3956 -88.8272 63° Northeast 409 471 14,800 -2,806 Descending Chicago Center
Mon 04:39:31 PM 41.4731 -88.6997 51° Northeast 371 427 11,200 -1,776 Descending Chicago Center
Mon 04:40:34 PM 41.5325 -88.5994 52° Northeast 346 398 11,100 -96 Descending Chicago Center
Mon 04:41:36 PM 41.5917 -88.4956 53° Northeast 351 404 11,000  Descending Chicago Center
Mon 04:42:38 PM 41.6519 -88.3928 52° Northeast 349 402 11,100  Climbing Chicago Center
Mon 04:43:40 PM 41.7103 -88.2922 52° Northeast 343 395 11,000 -48 Descending Chicago Center
Mon 04:44:42 PM 41.7703 -88.1911 51° Northeast 344 396 11,000 -242 Level Chicago Center
Mon 04:45:44 PM 41.8253 -88.0944 53° Northeast 330 380 10,500 -919 Descending Chicago Center
Mon 04:46:46 PM 41.8803 -87.9894 55° Northeast 287 330 9,100 -1,558 Descending Chicago Center
Mon 04:47:28 PM 41.8833 -87.9167 87° East 289 333 7,800 -1,389 Descending Chicago TRACON
Mon 04:48:34 PM 41.8833 -87.8000 90° East 243 280 6,600 -1,600 Descending Chicago TRACON
Mon 04:49:28 PM 41.8833 -87.7333 90° East 229 264 4,600 -1,389 Descending Chicago TRACON
Mon 04:50:22 PM 41.9167 -87.6833 48° Northeast 233 268 4,100 -556 Descending Chicago TRACON

Login

Don't have an account? Register now (free) for customized features, flight alerts, and more!